sensor_id;sensor_type;location;lat;lon;timestamp;P1;durP1;ratioP1;P2;durP2;ratioP2
55150;SDS011;41041;43.162;20.538;2023-05-16T00:00:27;27.52;;;8.95;;
55150;SDS011;41041;43.162;20.538;2023-05-16T00:02:59;44.67;;;16.15;;
55150;SDS011;41041;43.162;20.538;2023-05-16T00:05:25;27.77;;;9.40;;
55150;SDS011;41041;43.162;20.538;2023-05-16T00:07:51;23.15;;;8.63;;
55150;SDS011;41041;43.162;20.538;2023-05-16T00:10:17;28.17;;;9.15;;
55150;SDS011;41041;43.162;20.538;2023-05-16T00:15:18;19.88;;;7.68;;
55150;SDS011;41041;43.162;20.538;2023-05-16T00:17:44;23.15;;;8.27;;
55150;SDS011;41041;43.162;20.538;2023-05-16T00:23:16;21.88;;;8.95;;
55150;SDS011;41041;43.162;20.538;2023-05-16T00:25:42;20.77;;;8.25;;
55150;SDS011;41041;43.162;20.538;2023-05-16T00:28:09;23.08;;;6.88;;
55150;SDS011;41041;43.162;20.538;2023-05-16T00:30:35;23.30;;;6.45;;
55150;SDS011;41041;43.162;20.538;2023-05-16T00:33:01;21.30;;;6.95;;
55150;SDS011;41041;43.162;20.538;2023-05-16T00:35:27;17.00;;;6.50;;
55150;SDS011;41041;43.162;20.538;2023-05-16T00:37:53;19.88;;;6.78;;
55150;SDS011;41041;43.162;20.538;2023-05-16T00:40:20;22.20;;;7.70;;
55150;SDS011;41041;43.162;20.538;2023-05-16T00:42:46;23.80;;;7.47;;
55150;SDS011;41041;43.162;20.538;2023-05-16T00:45:12;29.83;;;10.68;;
55150;SDS011;41041;43.162;20.538;2023-05-16T00:47:38;31.45;;;10.80;;
55150;SDS011;41041;43.162;20.538;2023-05-16T00:53:00;21.48;;;7.18;;
55150;SDS011;41041;43.162;20.538;2023-05-16T00:55:26;19.60;;;6.78;;
55150;SDS011;41041;43.162;20.538;2023-05-16T00:57:52;21.52;;;6.85;;
55150;SDS011;41041;43.162;20.538;2023-05-16T01:00:18;18.27;;;6.63;;
55150;SDS011;41041;43.162;20.538;2023-05-16T01:02:45;17.88;;;6.38;;
55150;SDS011;41041;43.162;20.538;2023-05-16T01:05:11;25.15;;;8.35;;
55150;SDS011;41041;43.162;20.538;2023-05-16T01:07:37;23.67;;;7.40;;
55150;SDS011;41041;43.162;20.538;2023-05-16T01:10:13;19.30;;;7.60;;
55150;SDS011;41041;43.162;20.538;2023-05-16T01:15:27;20.45;;;6.72;;
55150;SDS011;41041;43.162;20.538;2023-05-16T01:21:03;18.25;;;6.75;;
55150;SDS011;41041;43.162;20.538;2023-05-16T01:26:23;16.77;;;6.88;;
55150;SDS011;41041;43.162;20.538;2023-05-16T01:28:50;20.23;;;7.75;;
55150;SDS011;41041;43.162;20.538;2023-05-16T01:31:17;25.23;;;8.70;;
55150;SDS011;41041;43.162;20.538;2023-05-16T01:33:43;25.00;;;9.00;;
55150;SDS011;41041;43.162;20.538;2023-05-16T01:39:01;25.15;;;9.23;;
55150;SDS011;41041;43.162;20.538;2023-05-16T01:41:50;21.58;;;8.38;;
55150;SDS011;41041;43.162;20.538;2023-05-16T01:44:22;21.27;;;8.05;;
55150;SDS011;41041;43.162;20.538;2023-05-16T01:46:51;19.17;;;7.68;;
55150;SDS011;41041;43.162;20.538;2023-05-16T01:49:42;20.30;;;8.75;;
55150;SDS011;41041;43.162;20.538;2023-05-16T01:52:19;19.95;;;7.28;;
55150;SDS011;41041;43.162;20.538;2023-05-16T01:54:47;22.65;;;8.18;;
55150;SDS011;41041;43.162;20.538;2023-05-16T01:57:13;28.52;;;8.13;;
55150;SDS011;41041;43.162;20.538;2023-05-16T01:59:40;22.58;;;7.45;;
55150;SDS011;41041;43.162;20.538;2023-05-16T02:02:07;16.02;;;6.70;;
55150;SDS011;41041;43.162;20.538;2023-05-16T02:04:33;17.83;;;5.85;;
55150;SDS011;41041;43.162;20.538;2023-05-16T02:06:59;20.33;;;7.10;;
55150;SDS011;41041;43.162;20.538;2023-05-16T02:09:26;20.33;;;7.13;;
55150;SDS011;41041;43.162;20.538;2023-05-16T02:11:52;17.90;;;7.47;;
55150;SDS011;41041;43.162;20.538;2023-05-16T02:14:18;21.67;;;7.43;;
55150;SDS011;41041;43.162;20.538;2023-05-16T02:16:44;18.70;;;7.03;;
55150;SDS011;41041;43.162;20.538;2023-05-16T02:19:10;18.92;;;7.18;;
55150;SDS011;41041;43.162;20.538;2023-05-16T02:21:36;19.67;;;6.35;;
55150;SDS011;41041;43.162;20.538;2023-05-16T02:24:02;22.00;;;6.40;;
55150;SDS011;41041;43.162;20.538;2023-05-16T02:26:28;19.08;;;6.43;;
55150;SDS011;41041;43.162;20.538;2023-05-16T02:28:55;19.48;;;6.70;;
55150;SDS011;41041;43.162;20.538;2023-05-16T02:31:25;18.98;;;6.95;;
55150;SDS011;41041;43.162;20.538;2023-05-16T02:33:51;20.00;;;5.97;;
55150;SDS011;41041;43.162;20.538;2023-05-16T02:36:17;19.35;;;6.70;;
55150;SDS011;41041;43.162;20.538;2023-05-16T02:38:43;15.48;;;5.82;;
55150;SDS011;41041;43.162;20.538;2023-05-16T02:41:09;19.92;;;6.25;;
55150;SDS011;41041;43.162;20.538;2023-05-16T02:43:35;20.55;;;7.38;;
55150;SDS011;41041;43.162;20.538;2023-05-16T02:46:03;20.10;;;6.35;;
55150;SDS011;41041;43.162;20.538;2023-05-16T02:48:29;17.88;;;6.10;;
55150;SDS011;41041;43.162;20.538;2023-05-16T02:50:55;17.38;;;6.80;;
55150;SDS011;41041;43.162;20.538;2023-05-16T02:53:22;17.52;;;6.40;;
55150;SDS011;41041;43.162;20.538;2023-05-16T02:55:50;18.60;;;6.72;;
55150;SDS011;41041;43.162;20.538;2023-05-16T02:58:16;18.90;;;7.15;;
55150;SDS011;41041;43.162;20.538;2023-05-16T03:03:19;20.83;;;7.68;;
55150;SDS011;41041;43.162;20.538;2023-05-16T03:05:49;15.68;;;6.80;;
55150;SDS011;41041;43.162;20.538;2023-05-16T03:08:16;20.47;;;7.53;;
55150;SDS011;41041;43.162;20.538;2023-05-16T03:10:42;22.00;;;7.40;;
55150;SDS011;41041;43.162;20.538;2023-05-16T03:13:09;17.35;;;6.88;;
55150;SDS011;41041;43.162;20.538;2023-05-16T03:15:35;18.02;;;6.60;;
55150;SDS011;41041;43.162;20.538;2023-05-16T03:18:01;17.08;;;7.05;;
55150;SDS011;41041;43.162;20.538;2023-05-16T03:20:39;18.00;;;7.03;;
55150;SDS011;41041;43.162;20.538;2023-05-16T03:23:05;22.15;;;8.00;;
55150;SDS011;41041;43.162;20.538;2023-05-16T03:25:35;21.92;;;7.35;;
55150;SDS011;41041;43.162;20.538;2023-05-16T03:28:04;20.23;;;6.70;;
55150;SDS011;41041;43.162;20.538;2023-05-16T03:30:34;16.63;;;6.10;;
55150;SDS011;41041;43.162;20.538;2023-05-16T03:33:01;16.92;;;7.18;;
55150;SDS011;41041;43.162;20.538;2023-05-16T03:35:28;20.17;;;6.07;;
55150;SDS011;41041;43.162;20.538;2023-05-16T03:37:54;16.10;;;5.70;;
55150;SDS011;41041;43.162;20.538;2023-05-16T03:40:20;13.40;;;5.97;;
55150;SDS011;41041;43.162;20.538;2023-05-16T03:42:46;20.73;;;5.90;;
55150;SDS011;41041;43.162;20.538;2023-05-16T03:45:12;12.90;;;6.38;;
55150;SDS011;41041;43.162;20.538;2023-05-16T03:47:38;16.50;;;5.30;;
55150;SDS011;41041;43.162;20.538;2023-05-16T03:52:41;19.13;;;7.13;;
55150;SDS011;41041;43.162;20.538;2023-05-16T03:55:07;19.98;;;6.63;;
55150;SDS011;41041;43.162;20.538;2023-05-16T03:57:33;20.25;;;7.82;;
55150;SDS011;41041;43.162;20.538;2023-05-16T03:59:59;16.42;;;7.38;;
55150;SDS011;41041;43.162;20.538;2023-05-16T04:02:25;25.48;;;8.23;;
55150;SDS011;41041;43.162;20.538;2023-05-16T04:04:51;20.65;;;7.90;;
55150;SDS011;41041;43.162;20.538;2023-05-16T04:07:18;26.10;;;8.23;;
55150;SDS011;41041;43.162;20.538;2023-05-16T04:09:55;21.42;;;8.55;;
55150;SDS011;41041;43.162;20.538;2023-05-16T04:12:22;18.75;;;8.00;;
55150;SDS011;41041;43.162;20.538;2023-05-16T04:14:48;22.88;;;7.97;;
55150;SDS011;41041;43.162;20.538;2023-05-16T04:17:14;19.85;;;7.35;;
55150;SDS011;41041;43.162;20.538;2023-05-16T04:19:40;30.65;;;15.27;;
55150;SDS011;41041;43.162;20.538;2023-05-16T04:22:06;26.98;;;12.45;;
55150;SDS011;41041;43.162;20.538;2023-05-16T04:24:33;23.50;;;10.73;;
55150;SDS011;41041;43.162;20.538;2023-05-16T04:27:00;34.92;;;15.60;;
55150;SDS011;41041;43.162;20.538;2023-05-16T04:29:26;31.45;;;13.13;;
55150;SDS011;41041;43.162;20.538;2023-05-16T04:31:52;27.58;;;9.52;;
55150;SDS011;41041;43.162;20.538;2023-05-16T04:34:18;22.50;;;7.25;;
55150;SDS011;41041;43.162;20.538;2023-05-16T04:36:44;36.25;;;9.75;;
55150;SDS011;41041;43.162;20.538;2023-05-16T04:39:11;33.47;;;7.93;;
55150;SDS011;41041;43.162;20.538;2023-05-16T04:41:37;30.30;;;8.13;;
55150;SDS011;41041;43.162;20.538;2023-05-16T04:44:04;24.42;;;7.80;;
55150;SDS011;41041;43.162;20.538;2023-05-16T04:46:30;29.38;;;9.05;;
55150;SDS011;41041;43.162;20.538;2023-05-16T04:48:56;23.98;;;8.68;;
55150;SDS011;41041;43.162;20.538;2023-05-16T04:51:22;19.65;;;7.90;;
55150;SDS011;41041;43.162;20.538;2023-05-16T04:53:48;22.10;;;7.28;;
55150;SDS011;41041;43.162;20.538;2023-05-16T04:56:14;32.17;;;8.00;;
55150;SDS011;41041;43.162;20.538;2023-05-16T04:58:40;35.75;;;8.63;;
55150;SDS011;41041;43.162;20.538;2023-05-16T05:01:06;29.80;;;7.82;;
55150;SDS011;41041;43.162;20.538;2023-05-16T05:03:32;23.35;;;7.28;;
55150;SDS011;41041;43.162;20.538;2023-05-16T05:05:59;25.13;;;7.40;;
55150;SDS011;41041;43.162;20.538;2023-05-16T05:08:25;19.73;;;7.07;;
55150;SDS011;41041;43.162;20.538;2023-05-16T05:11:03;21.60;;;7.13;;
55150;SDS011;41041;43.162;20.538;2023-05-16T05:13:28;25.92;;;9.57;;
55150;SDS011;41041;43.162;20.538;2023-05-16T05:15:54;31.92;;;10.98;;
55150;SDS011;41041;43.162;20.538;2023-05-16T05:18:21;38.45;;;10.80;;
55150;SDS011;41041;43.162;20.538;2023-05-16T05:20:47;30.80;;;10.45;;
55150;SDS011;41041;43.162;20.538;2023-05-16T05:23:12;25.10;;;10.02;;
55150;SDS011;41041;43.162;20.538;2023-05-16T05:25:50;38.72;;;11.00;;
55150;SDS011;41041;43.162;20.538;2023-05-16T05:28:16;21.13;;;7.55;;
55150;SDS011;41041;43.162;20.538;2023-05-16T05:30:42;22.77;;;8.88;;
55150;SDS011;41041;43.162;20.538;2023-05-16T05:33:09;28.25;;;8.73;;
55150;SDS011;41041;43.162;20.538;2023-05-16T05:35:35;23.65;;;8.40;;
55150;SDS011;41041;43.162;20.538;2023-05-16T05:38:01;29.30;;;8.10;;
55150;SDS011;41041;43.162;20.538;2023-05-16T05:40:29;27.55;;;8.65;;
55150;SDS011;41041;43.162;20.538;2023-05-16T05:42:55;23.55;;;8.60;;
55150;SDS011;41041;43.162;20.538;2023-05-16T05:45:21;27.33;;;9.63;;
55150;SDS011;41041;43.162;20.538;2023-05-16T05:47:51;32.88;;;9.68;;
55150;SDS011;41041;43.162;20.538;2023-05-16T05:50:17;34.37;;;9.97;;
55150;SDS011;41041;43.162;20.538;2023-05-16T05:52:43;39.25;;;10.30;;
55150;SDS011;41041;43.162;20.538;2023-05-16T05:55:09;45.75;;;10.23;;
55150;SDS011;41041;43.162;20.538;2023-05-16T05:57:35;35.03;;;9.00;;
55150;SDS011;41041;43.162;20.538;2023-05-16T06:00:01;34.20;;;10.18;;
55150;SDS011;41041;43.162;20.538;2023-05-16T06:02:29;29.52;;;8.93;;
55150;SDS011;41041;43.162;20.538;2023-05-16T06:04:55;35.70;;;8.98;;
55150;SDS011;41041;43.162;20.538;2023-05-16T06:07:31;37.38;;;8.40;;
55150;SDS011;41041;43.162;20.538;2023-05-16T06:09:57;19.83;;;5.80;;
55150;SDS011;41041;43.162;20.538;2023-05-16T06:12:28;26.60;;;5.95;;
55150;SDS011;41041;43.162;20.538;2023-05-16T06:14:54;23.70;;;5.40;;
55150;SDS011;41041;43.162;20.538;2023-05-16T06:17:20;24.15;;;5.93;;
55150;SDS011;41041;43.162;20.538;2023-05-16T06:19:46;25.63;;;6.05;;
55150;SDS011;41041;43.162;20.538;2023-05-16T06:22:12;35.22;;;7.95;;
55150;SDS011;41041;43.162;20.538;2023-05-16T06:24:49;25.25;;;6.85;;
55150;SDS011;41041;43.162;20.538;2023-05-16T06:27:15;20.98;;;5.43;;
55150;SDS011;41041;43.162;20.538;2023-05-16T06:29:41;16.77;;;4.55;;
55150;SDS011;41041;43.162;20.538;2023-05-16T06:32:06;23.48;;;6.25;;
55150;SDS011;41041;43.162;20.538;2023-05-16T06:34:32;16.02;;;5.97;;
55150;SDS011;41041;43.162;20.538;2023-05-16T06:36:58;19.58;;;5.15;;
55150;SDS011;41041;43.162;20.538;2023-05-16T06:39:23;22.10;;;4.50;;
55150;SDS011;41041;43.162;20.538;2023-05-16T06:41:50;18.20;;;3.92;;
55150;SDS011;41041;43.162;20.538;2023-05-16T06:44:15;16.88;;;4.43;;
55150;SDS011;41041;43.162;20.538;2023-05-16T06:49:33;32.78;;;6.63;;
55150;SDS011;41041;43.162;20.538;2023-05-16T06:51:59;18.00;;;5.15;;
55150;SDS011;41041;43.162;20.538;2023-05-16T06:54:25;21.75;;;6.60;;
55150;SDS011;41041;43.162;20.538;2023-05-16T06:56:50;21.40;;;5.88;;
55150;SDS011;41041;43.162;20.538;2023-05-16T06:59:16;11.55;;;3.70;;
55150;SDS011;41041;43.162;20.538;2023-05-16T07:01:42;22.17;;;6.13;;
55150;SDS011;41041;43.162;20.538;2023-05-16T07:04:08;39.20;;;15.05;;
55150;SDS011;41041;43.162;20.538;2023-05-16T07:06:34;35.63;;;17.23;;
55150;SDS011;41041;43.162;20.538;2023-05-16T07:08:59;40.60;;;15.80;;
55150;SDS011;41041;43.162;20.538;2023-05-16T07:11:26;39.50;;;14.32;;
55150;SDS011;41041;43.162;20.538;2023-05-16T07:13:52;33.22;;;15.38;;
55150;SDS011;41041;43.162;20.538;2023-05-16T07:16:18;35.03;;;15.73;;
55150;SDS011;41041;43.162;20.538;2023-05-16T07:18:43;33.53;;;16.60;;
55150;SDS011;41041;43.162;20.538;2023-05-16T07:21:09;28.73;;;13.43;;
55150;SDS011;41041;43.162;20.538;2023-05-16T07:23:35;19.75;;;6.72;;
55150;SDS011;41041;43.162;20.538;2023-05-16T07:26:01;15.40;;;5.72;;
55150;SDS011;41041;43.162;20.538;2023-05-16T07:28:27;23.88;;;5.55;;
55150;SDS011;41041;43.162;20.538;2023-05-16T07:30:53;12.95;;;2.88;;
55150;SDS011;41041;43.162;20.538;2023-05-16T07:33:19;9.85;;;2.67;;
55150;SDS011;41041;43.162;20.538;2023-05-16T07:35:45;10.52;;;2.50;;
55150;SDS011;41041;43.162;20.538;2023-05-16T07:38:10;10.10;;;2.40;;
55150;SDS011;41041;43.162;20.538;2023-05-16T07:40:37;10.30;;;2.60;;
55150;SDS011;41041;43.162;20.538;2023-05-16T07:43:03;11.43;;;2.28;;
55150;SDS011;41041;43.162;20.538;2023-05-16T07:45:29;19.42;;;3.38;;
55150;SDS011;41041;43.162;20.538;2023-05-16T07:48:01;14.32;;;2.95;;
55150;SDS011;41041;43.162;20.538;2023-05-16T07:50:27;14.07;;;2.78;;
55150;SDS011;41041;43.162;20.538;2023-05-16T07:52:53;11.20;;;2.20;;
55150;SDS011;41041;43.162;20.538;2023-05-16T07:58:09;11.90;;;2.60;;
55150;SDS011;41041;43.162;20.538;2023-05-16T08:00:35;32.65;;;12.32;;
55150;SDS011;41041;43.162;20.538;2023-05-16T08:03:01;44.22;;;26.15;;
55150;SDS011;41041;43.162;20.538;2023-05-16T08:05:27;36.30;;;13.35;;
55150;SDS011;41041;43.162;20.538;2023-05-16T08:07:52;24.05;;;8.70;;
55150;SDS011;41041;43.162;20.538;2023-05-16T08:13:36;19.73;;;4.93;;
55150;SDS011;41041;43.162;20.538;2023-05-16T08:16:02;13.52;;;5.00;;
55150;SDS011;41041;43.162;20.538;2023-05-16T08:18:37;16.00;;;4.07;;
55150;SDS011;41041;43.162;20.538;2023-05-16T08:21:03;23.85;;;4.65;;
55150;SDS011;41041;43.162;20.538;2023-05-16T08:23:30;23.00;;;4.05;;
55150;SDS011;41041;43.162;20.538;2023-05-16T08:26:07;14.93;;;3.65;;
55150;SDS011;41041;43.162;20.538;2023-05-16T08:28:33;17.45;;;4.40;;
55150;SDS011;41041;43.162;20.538;2023-05-16T08:31:00;16.60;;;3.33;;
55150;SDS011;41041;43.162;20.538;2023-05-16T08:38:23;20.20;;;2.80;;
55150;SDS011;41041;43.162;20.538;2023-05-16T08:40:49;13.20;;;2.90;;
55150;SDS011;41041;43.162;20.538;2023-05-16T08:43:15;21.38;;;3.45;;
55150;SDS011;41041;43.162;20.538;2023-05-16T08:45:41;13.50;;;3.58;;
55150;SDS011;41041;43.162;20.538;2023-05-16T08:48:08;12.88;;;3.15;;
55150;SDS011;41041;43.162;20.538;2023-05-16T08:50:36;14.65;;;3.45;;
55150;SDS011;41041;43.162;20.538;2023-05-16T08:53:06;18.60;;;3.92;;
55150;SDS011;41041;43.162;20.538;2023-05-16T08:55:34;18.55;;;4.03;;
55150;SDS011;41041;43.162;20.538;2023-05-16T08:58:00;16.38;;;4.00;;
55150;SDS011;41041;43.162;20.538;2023-05-16T09:00:26;26.27;;;5.68;;
55150;SDS011;41041;43.162;20.538;2023-05-16T09:02:53;34.45;;;7.47;;
55150;SDS011;41041;43.162;20.538;2023-05-16T09:05:20;27.60;;;13.43;;
55150;SDS011;41041;43.162;20.538;2023-05-16T09:07:47;31.02;;;12.43;;
55150;SDS011;41041;43.162;20.538;2023-05-16T09:10:14;30.23;;;11.57;;
55150;SDS011;41041;43.162;20.538;2023-05-16T09:12:40;18.08;;;4.45;;
55150;SDS011;41041;43.162;20.538;2023-05-16T09:15:07;16.88;;;4.63;;
55150;SDS011;41041;43.162;20.538;2023-05-16T09:17:38;21.23;;;5.60;;
55150;SDS011;41041;43.162;20.538;2023-05-16T09:20:08;28.13;;;6.30;;
55150;SDS011;41041;43.162;20.538;2023-05-16T09:22:35;20.33;;;6.17;;
55150;SDS011;41041;43.162;20.538;2023-05-16T09:25:01;25.65;;;6.30;;
55150;SDS011;41041;43.162;20.538;2023-05-16T09:27:29;26.17;;;8.07;;
55150;SDS011;41041;43.162;20.538;2023-05-16T09:29:56;20.15;;;7.47;;
55150;SDS011;41041;43.162;20.538;2023-05-16T09:32:23;18.35;;;4.53;;
55150;SDS011;41041;43.162;20.538;2023-05-16T09:34:49;14.40;;;3.70;;
55150;SDS011;41041;43.162;20.538;2023-05-16T09:37:17;10.63;;;3.50;;
55150;SDS011;41041;43.162;20.538;2023-05-16T09:39:48;14.05;;;3.60;;
55150;SDS011;41041;43.162;20.538;2023-05-16T09:42:15;18.08;;;3.42;;
55150;SDS011;41041;43.162;20.538;2023-05-16T09:44:49;11.05;;;3.00;;
55150;SDS011;41041;43.162;20.538;2023-05-16T09:47:20;14.23;;;3.58;;
55150;SDS011;41041;43.162;20.538;2023-05-16T09:49:50;14.60;;;3.10;;
55150;SDS011;41041;43.162;20.538;2023-05-16T09:52:17;14.25;;;3.33;;
55150;SDS011;41041;43.162;20.538;2023-05-16T09:54:44;12.13;;;3.88;;
55150;SDS011;41041;43.162;20.538;2023-05-16T09:57:16;10.80;;;3.63;;
55150;SDS011;41041;43.162;20.538;2023-05-16T09:59:43;16.42;;;4.30;;
55150;SDS011;41041;43.162;20.538;2023-05-16T10:02:10;17.85;;;5.30;;
55150;SDS011;41041;43.162;20.538;2023-05-16T10:04:37;16.90;;;4.65;;
55150;SDS011;41041;43.162;20.538;2023-05-16T10:07:04;15.07;;;5.90;;
55150;SDS011;41041;43.162;20.538;2023-05-16T10:09:31;18.60;;;6.10;;
55150;SDS011;41041;43.162;20.538;2023-05-16T10:12:02;19.23;;;5.45;;
55150;SDS011;41041;43.162;20.538;2023-05-16T10:14:29;36.13;;;22.13;;
55150;SDS011;41041;43.162;20.538;2023-05-16T10:16:58;37.45;;;19.67;;
55150;SDS011;41041;43.162;20.538;2023-05-16T10:19:25;33.63;;;18.05;;
55150;SDS011;41041;43.162;20.538;2023-05-16T10:21:52;16.30;;;7.13;;
55150;SDS011;41041;43.162;20.538;2023-05-16T10:24:21;15.25;;;6.47;;
55150;SDS011;41041;43.162;20.538;2023-05-16T10:26:49;20.48;;;5.72;;
55150;SDS011;41041;43.162;20.538;2023-05-16T10:29:17;15.63;;;6.78;;
55150;SDS011;41041;43.162;20.538;2023-05-16T10:31:43;20.67;;;5.20;;
55150;SDS011;41041;43.162;20.538;2023-05-16T10:34:10;18.50;;;4.80;;
55150;SDS011;41041;43.162;20.538;2023-05-16T10:36:36;11.85;;;4.45;;
55150;SDS011;41041;43.162;20.538;2023-05-16T10:39:03;9.90;;;3.00;;
55150;SDS011;41041;43.162;20.538;2023-05-16T10:41:30;8.88;;;2.60;;
55150;SDS011;41041;43.162;20.538;2023-05-16T10:43:56;8.93;;;2.50;;
55150;SDS011;41041;43.162;20.538;2023-05-16T10:46:23;13.82;;;3.60;;
55150;SDS011;41041;43.162;20.538;2023-05-16T10:48:49;21.35;;;10.13;;
55150;SDS011;41041;43.162;20.538;2023-05-16T10:53:51;18.38;;;8.15;;
55150;SDS011;41041;43.162;20.538;2023-05-16T10:56:24;17.75;;;8.13;;
55150;SDS011;41041;43.162;20.538;2023-05-16T10:58:52;15.93;;;6.10;;
55150;SDS011;41041;43.162;20.538;2023-05-16T11:06:30;18.98;;;4.10;;
55150;SDS011;41041;43.162;20.538;2023-05-16T11:11:46;9.18;;;3.45;;
55150;SDS011;41041;43.162;20.538;2023-05-16T11:16:48;8.95;;;3.35;;
55150;SDS011;41041;43.162;20.538;2023-05-16T11:19:18;11.75;;;3.70;;
55150;SDS011;41041;43.162;20.538;2023-05-16T11:27:13;10.85;;;3.40;;
55150;SDS011;41041;43.162;20.538;2023-05-16T11:29:58;11.10;;;3.45;;
55150;SDS011;41041;43.162;20.538;2023-05-16T11:32:24;10.57;;;2.95;;
55150;SDS011;41041;43.162;20.538;2023-05-16T11:34:50;9.50;;;3.22;;
55150;SDS011;41041;43.162;20.538;2023-05-16T11:37:17;15.88;;;3.20;;
55150;SDS011;41041;43.162;20.538;2023-05-16T11:39:44;11.77;;;3.28;;
55150;SDS011;41041;43.162;20.538;2023-05-16T11:42:10;8.98;;;3.15;;
55150;SDS011;41041;43.162;20.538;2023-05-16T11:44:37;13.50;;;5.80;;
55150;SDS011;41041;43.162;20.538;2023-05-16T11:47:07;15.73;;;7.10;;
55150;SDS011;41041;43.162;20.538;2023-05-16T11:49:33;12.13;;;3.70;;
55150;SDS011;41041;43.162;20.538;2023-05-16T11:51:59;11.95;;;3.45;;
55150;SDS011;41041;43.162;20.538;2023-05-16T11:54:25;9.73;;;3.53;;
55150;SDS011;41041;43.162;20.538;2023-05-16T11:56:51;14.13;;;3.60;;
55150;SDS011;41041;43.162;20.538;2023-05-16T11:59:19;8.95;;;3.22;;
55150;SDS011;41041;43.162;20.538;2023-05-16T12:01:45;10.23;;;3.35;;
55150;SDS011;41041;43.162;20.538;2023-05-16T12:04:14;11.98;;;3.15;;
55150;SDS011;41041;43.162;20.538;2023-05-16T12:06:41;7.13;;;2.63;;
55150;SDS011;41041;43.162;20.538;2023-05-16T12:09:12;9.15;;;2.40;;
55150;SDS011;41041;43.162;20.538;2023-05-16T12:11:40;7.88;;;2.50;;
55150;SDS011;41041;43.162;20.538;2023-05-16T12:14:07;8.50;;;2.50;;
55150;SDS011;41041;43.162;20.538;2023-05-16T12:16:37;67.35;;;9.60;;
55150;SDS011;41041;43.162;20.538;2023-05-16T12:19:06;12.90;;;3.22;;
55150;SDS011;41041;43.162;20.538;2023-05-16T12:21:32;11.77;;;2.85;;
55150;SDS011;41041;43.162;20.538;2023-05-16T12:23:58;12.18;;;3.63;;
55150;SDS011;41041;43.162;20.538;2023-05-16T12:26:28;11.90;;;3.40;;
55150;SDS011;41041;43.162;20.538;2023-05-16T12:28:58;15.65;;;3.70;;
55150;SDS011;41041;43.162;20.538;2023-05-16T12:31:27;12.43;;;3.22;;
55150;SDS011;41041;43.162;20.538;2023-05-16T12:36:51;12.07;;;2.97;;
55150;SDS011;41041;43.162;20.538;2023-05-16T12:39:18;17.15;;;3.58;;
55150;SDS011;41041;43.162;20.538;2023-05-16T12:41:45;10.93;;;3.03;;
55150;SDS011;41041;43.162;20.538;2023-05-16T12:44:15;19.15;;;4.43;;
55150;SDS011;41041;43.162;20.538;2023-05-16T12:46:43;16.50;;;4.15;;
55150;SDS011;41041;43.162;20.538;2023-05-16T12:49:10;13.85;;;3.42;;
55150;SDS011;41041;43.162;20.538;2023-05-16T12:51:37;17.50;;;3.55;;
55150;SDS011;41041;43.162;20.538;2023-05-16T12:54:11;14.27;;;3.60;;
55150;SDS011;41041;43.162;20.538;2023-05-16T12:56:38;14.85;;;3.78;;
55150;SDS011;41041;43.162;20.538;2023-05-16T12:59:05;14.65;;;3.65;;
55150;SDS011;41041;43.162;20.538;2023-05-16T13:01:31;13.35;;;3.67;;
55150;SDS011;41041;43.162;20.538;2023-05-16T13:03:57;18.48;;;4.00;;
55150;SDS011;41041;43.162;20.538;2023-05-16T13:06:23;15.55;;;4.03;;
55150;SDS011;41041;43.162;20.538;2023-05-16T13:08:50;15.23;;;3.70;;
55150;SDS011;41041;43.162;20.538;2023-05-16T13:11:16;16.13;;;3.95;;
55150;SDS011;41041;43.162;20.538;2023-05-16T13:13:43;18.50;;;3.60;;
55150;SDS011;41041;43.162;20.538;2023-05-16T13:16:09;12.25;;;3.50;;
55150;SDS011;41041;43.162;20.538;2023-05-16T13:18:35;13.68;;;3.63;;
55150;SDS011;41041;43.162;20.538;2023-05-16T13:21:02;12.15;;;3.28;;
55150;SDS011;41041;43.162;20.538;2023-05-16T13:23:28;12.85;;;3.20;;
55150;SDS011;41041;43.162;20.538;2023-05-16T13:25:55;10.00;;;3.38;;
55150;SDS011;41041;43.162;20.538;2023-05-16T13:28:28;13.50;;;3.47;;
55150;SDS011;41041;43.162;20.538;2023-05-16T13:30:54;13.45;;;3.60;;
55150;SDS011;41041;43.162;20.538;2023-05-16T13:33:32;15.98;;;3.40;;
55150;SDS011;41041;43.162;20.538;2023-05-16T13:36:00;12.02;;;3.50;;
55150;SDS011;41041;43.162;20.538;2023-05-16T13:38:26;19.08;;;4.63;;
55150;SDS011;41041;43.162;20.538;2023-05-16T13:40:52;13.75;;;3.92;;
55150;SDS011;41041;43.162;20.538;2023-05-16T13:43:18;16.00;;;3.67;;
55150;SDS011;41041;43.162;20.538;2023-05-16T13:45:44;17.63;;;5.30;;
55150;SDS011;41041;43.162;20.538;2023-05-16T13:48:10;15.10;;;4.60;;
55150;SDS011;41041;43.162;20.538;2023-05-16T13:50:36;25.05;;;6.50;;
55150;SDS011;41041;43.162;20.538;2023-05-16T13:53:02;27.00;;;4.75;;
55150;SDS011;41041;43.162;20.538;2023-05-16T13:55:28;15.23;;;3.90;;
55150;SDS011;41041;43.162;20.538;2023-05-16T13:57:53;13.73;;;3.80;;
55150;SDS011;41041;43.162;20.538;2023-05-16T14:00:19;12.70;;;3.55;;
55150;SDS011;41041;43.162;20.538;2023-05-16T14:02:45;12.40;;;3.45;;
55150;SDS011;41041;43.162;20.538;2023-05-16T14:07:40;10.55;;;3.65;;
55150;SDS011;41041;43.162;20.538;2023-05-16T14:10:06;15.07;;;4.00;;
55150;SDS011;41041;43.162;20.538;2023-05-16T14:12:32;12.77;;;2.88;;
55150;SDS011;41041;43.162;20.538;2023-05-16T14:14:58;9.02;;;3.00;;
55150;SDS011;41041;43.162;20.538;2023-05-16T14:17:24;11.57;;;3.65;;
55150;SDS011;41041;43.162;20.538;2023-05-16T14:19:51;8.27;;;2.90;;
55150;SDS011;41041;43.162;20.538;2023-05-16T14:22:17;14.50;;;3.78;;
55150;SDS011;41041;43.162;20.538;2023-05-16T14:24:43;14.98;;;3.38;;
55150;SDS011;41041;43.162;20.538;2023-05-16T14:27:09;15.13;;;3.33;;
55150;SDS011;41041;43.162;20.538;2023-05-16T14:29:36;15.30;;;3.08;;
55150;SDS011;41041;43.162;20.538;2023-05-16T14:32:02;9.77;;;3.20;;
55150;SDS011;41041;43.162;20.538;2023-05-16T14:34:28;14.57;;;3.42;;
55150;SDS011;41041;43.162;20.538;2023-05-16T14:39:30;11.43;;;3.63;;
55150;SDS011;41041;43.162;20.538;2023-05-16T14:41:56;13.25;;;3.65;;
55150;SDS011;41041;43.162;20.538;2023-05-16T14:44:21;18.85;;;3.88;;
55150;SDS011;41041;43.162;20.538;2023-05-16T14:46:48;14.25;;;3.45;;
55150;SDS011;41041;43.162;20.538;2023-05-16T14:49:15;16.85;;;3.45;;
55150;SDS011;41041;43.162;20.538;2023-05-16T14:51:41;18.80;;;4.65;;
55150;SDS011;41041;43.162;20.538;2023-05-16T14:54:13;21.05;;;6.03;;
55150;SDS011;41041;43.162;20.538;2023-05-16T14:56:40;20.58;;;5.65;;
55150;SDS011;41041;43.162;20.538;2023-05-16T14:59:06;15.13;;;4.32;;
55150;SDS011;41041;43.162;20.538;2023-05-16T15:01:32;38.42;;;5.38;;
55150;SDS011;41041;43.162;20.538;2023-05-16T15:03:58;19.88;;;5.03;;
55150;SDS011;41041;43.162;20.538;2023-05-16T15:06:24;15.65;;;3.92;;
55150;SDS011;41041;43.162;20.538;2023-05-16T15:08:50;14.90;;;3.45;;
55150;SDS011;41041;43.162;20.538;2023-05-16T15:11:16;15.23;;;3.45;;
55150;SDS011;41041;43.162;20.538;2023-05-16T15:13:41;22.23;;;4.32;;
55150;SDS011;41041;43.162;20.538;2023-05-16T15:16:07;16.23;;;3.13;;
55150;SDS011;41041;43.162;20.538;2023-05-16T15:21:26;12.73;;;3.80;;
55150;SDS011;41041;43.162;20.538;2023-05-16T15:23:53;15.55;;;3.80;;
55150;SDS011;41041;43.162;20.538;2023-05-16T15:26:21;27.05;;;7.10;;
55150;SDS011;41041;43.162;20.538;2023-05-16T15:28:49;40.92;;;8.38;;